Terminal Aerodrome Forecast
Issued by NWS Wilmington, OH

Current Version | Previous Version | Graphics & Text | Print | Product List | Glossary On
Versions: 1 2 3 4 5 6 7 8 9 10 11 12 13 14 15 16
000
FTUS41 KILN 211121
TAFILN
TAF
KILN 211121Z 2112/2212 19007KT P6SM -RA SCT025 BKN050
      TEMPO 2112/2114 5SM -RA BKN008
     FM211400 20010KT P6SM SCT018 OVC025
      TEMPO 2114/2116 BKN015
     FM211800 21012KT P6SM OVC025
     FM212100 23011KT P6SM VCSH BKN040
     FM220200 27007KT P6SM SCT030=

USA.gov is the U.S. government's official web portal to all federal, state and local government web resources and services.